Portada
METAR-TAF:

METAR-TAF

Aeropuertos :

Jayapura, Indonesia

latitud: 02-34-37S, longitud: 140-30-58E, altitud: 88 m

Observación

El informe se hizo hace 24 minutos, a las 14:30 UTC
Viento 2 kt con dirección variable
Temperatura 26°C
Humedad 94%
Presión 1008 hPa
Visibilidad 10 km o más
Escasas nubes a una altura de 1300 ft

METAR: WAJJ 211430Z VRB02KT 9999 FEW013 26/25 Q1008

Hora: 21:54 (14:54 UTC)


TAF: falta

Observaciones y pronósticos meteorológicos de más de 4000 aeropuertos (mensajes METAR y TAF).

Los puntos amarillos y rojos representan las estaciones disponibles.

Ponga el ratón en el punto deseado para ver el nombre de la estación.

Haga clic para ver las observaciones y los pronósticos meteorológicos.

Para cambiar el mapa : haga clic en los botones verdes con una cruz de color negro para hacer un zoom, en el botón verde con un guión para alejar o en las flechas verdes para mapas adyacentes.


METAR-TAF: